Green Fast — ZDHA9 — position and weather

sailwx.info

Track history (hours):
 
Tides and Currents Weather Stations Pressure Air Temp Water Temp Dewpoint Dewpoint Depression Visibility Wind Speed Wind Dir Waves Ship Positions

Green Fast

Last reported at 2014-Dec-19 00:11 UTC. Time now 2014-Dec-20 13:01 UTC.
Position N 40°32' E 003°41'.

Length 118 m; draft 6.9 m.

Type: Ship (hazmat cat A). MMSI: 236294000.

Date/timePositionNaut miles runAvg speedWind from/ knotsBaromVisibWave heightAir tempDewpointWater temp
2014-Dec-19 00:11N 40°32' E 003°41'1012.2
2014-Dec-18 23:24N 40°37' E 003°30'1012.4
2014-Dec-18 22:33N 40°43' E 003°19'1313.0
2014-Dec-18 21:33N 40°50' E 003°04'1312.5
2014-Dec-18 20:33N 40°57' E 002°51'1312.8
2014-Dec-18 19:33N 41°04' E 002°36'1313.0
2014-Dec-18 18:33N 41°11' E 002°22'1211.8
2014-Dec-18 17:33N 41°19' E 002°10'3 1.8
2014-Dec-18 16:06N 41°22' E 002°10'0 0.0
2014-Dec-18 14:30N 41°22' E 002°10'0 0.0
2014-Dec-18 13:06N 41°22' E 002°10'0 0.0
2014-Dec-18 12:30N 41°22' E 002°10'0 0.0
2014-Dec-18 10:30N 41°22' E 002°10'0 0.0
2014-Dec-18 09:06N 41°22' E 002°10'0 0.0
2014-Dec-18 08:30N 41°22' E 002°10'0 0.0
2014-Dec-18 06:24N 41°22' E 002°10'0 0.0
2014-Dec-18 05:27N 41°22' E 002°10'0 0.0
2014-Dec-18 03:18N 41°22' E 002°10'0 0.0
2014-Dec-17 21:18N 41°22' E 002°10'15 0.9
2014-Dec-17 05:25N 41°08' E 002°02'910.4
2014-Dec-17 04:33N 41°02' E 001°54'1010.5
2014-Dec-17 03:33N 40°54' E 001°46'1010.4
2014-Dec-17 02:33N 40°46' E 001°36'1010.1
2014-Dec-17 01:33N 40°39' E 001°27'1110.4
2014-Dec-17 00:32N 40°33' E 001°16'1110.6
2014-Dec-16 23:32N 40°27' E 001°04'  
2014-Dec-13 12:07N 39°47' E 000°36'912.0
2014-Dec-13 11:22N 39°43' E 000°47'3711.9
2014-Dec-13 08:17N 39°29' E 001°31'912.1
2014-Dec-13 07:33N 39°26' E 001°41'1212.3
2014-Dec-13 06:33N 39°21' E 001°56'1212.2
2014-Dec-13 05:33N 39°17' E 002°11'1212.0
2014-Dec-13 04:33N 39°12' E 002°25'1212.3
2014-Dec-13 03:33N 39°07' E 002°39'1212.1
2014-Dec-13 02:33N 39°02' E 002°54'1212.0
2014-Dec-13 01:33N 38°59' E 003°09'1211.9
2014-Dec-13 00:33N 38°56' E 003°24'1211.8
2014-Dec-12 23:33N 38°54' E 003°38'1211.9
2014-Dec-12 22:32N 38°51' E 003°54'  
Track history (hours):
 
Tides and Currents Weather Stations Pressure Air Temp Water Temp Dewpoint Dewpoint Depression Visibility Wind Speed Wind Dir Waves Ship Positions

Green Fast

Last reported at 2014-Dec-19 00:11 UTC. Time now 2014-Dec-20 13:01 UTC.
Position N 40°32' E 003°41'.

Length 118 m; draft 6.9 m.

Type: Ship (hazmat cat A). MMSI: 236294000.

Date/timePositionNaut miles runAvg speedWind from/ knotsBaromVisibWave heightAir tempDewpointWater temp
2014-Dec-19 00:11N 40°32' E 003°41'1012.2
2014-Dec-18 23:24N 40°37' E 003°30'1012.4
2014-Dec-18 22:33N 40°43' E 003°19'1313.0
2014-Dec-18 21:33N 40°50' E 003°04'1312.5
2014-Dec-18 20:33N 40°57' E 002°51'1312.8
2014-Dec-18 19:33N 41°04' E 002°36'1313.0
2014-Dec-18 18:33N 41°11' E 002°22'1211.8
2014-Dec-18 17:33N 41°19' E 002°10'3 1.8
2014-Dec-18 16:06N 41°22' E 002°10'0 0.0
2014-Dec-18 14:30N 41°22' E 002°10'0 0.0
2014-Dec-18 13:06N 41°22' E 002°10'0 0.0
2014-Dec-18 12:30N 41°22' E 002°10'0 0.0
2014-Dec-18 10:30N 41°22' E 002°10'0 0.0
2014-Dec-18 09:06N 41°22' E 002°10'0 0.0
2014-Dec-18 08:30N 41°22' E 002°10'0 0.0
2014-Dec-18 06:24N 41°22' E 002°10'0 0.0
2014-Dec-18 05:27N 41°22' E 002°10'0 0.0
2014-Dec-18 03:18N 41°22' E 002°10'0 0.0
2014-Dec-17 21:18N 41°22' E 002°10'15 0.9
2014-Dec-17 05:25N 41°08' E 002°02'910.4
2014-Dec-17 04:33N 41°02' E 001°54'1010.5
2014-Dec-17 03:33N 40°54' E 001°46'1010.4
2014-Dec-17 02:33N 40°46' E 001°36'1010.1
2014-Dec-17 01:33N 40°39' E 001°27'1110.4
2014-Dec-17 00:32N 40°33' E 001°16'1110.6
2014-Dec-16 23:32N 40°27' E 001°04'  
2014-Dec-13 12:07N 39°47' E 000°36'912.0
2014-Dec-13 11:22N 39°43' E 000°47'3711.9
2014-Dec-13 08:17N 39°29' E 001°31'912.1
2014-Dec-13 07:33N 39°26' E 001°41'1212.3
2014-Dec-13 06:33N 39°21' E 001°56'1212.2
2014-Dec-13 05:33N 39°17' E 002°11'1212.0
2014-Dec-13 04:33N 39°12' E 002°25'1212.3
2014-Dec-13 03:33N 39°07' E 002°39'1212.1
2014-Dec-13 02:33N 39°02' E 002°54'1212.0
2014-Dec-13 01:33N 38°59' E 003°09'1211.9
2014-Dec-13 00:33N 38°56' E 003°24'1211.8
2014-Dec-12 23:33N 38°54' E 003°38'1211.9
2014-Dec-12 22:32N 38°51' E 003°54'  

Dump ship's entire track history